Portada
METAR-TAF:

METAR-TAF

Aeroports :

Shantou, Xina

latitud: 23-24N, longitud: 116-41E, altitud: 3 m

Observació

L'informe es va fer fa 27 minuts, a les 12:00 UTC
Vent 6 kt del Sud/Sud-Est
Temperatura 17°C
Humitat 68%
Pressió 1022 hPa
Visibilitat: 8000 m

METAR: ZGOW 211200Z 16003MPS 8000 NSC 17/11 Q1022 NOSIG

Hora: 20:27 (12:27 UTC)

Pronòstic

L'informe es va fer fa 3 hores i 20 minuts, a les 09:07 UTC
Pronòstic vàlid del 21 a les 12 UTC al 22 a les 12 UTC
Vent 6 kt del Est
Visibilitat: 5000 m
Escasses núvols a una alçada de 2000 ft
Núvols disperses a una alçada de 4000 ft
boirina
Temporalment
l' 21 a les 21 UTC al 22 a les 01 UTC
Visibilitat: 2500 m

TAF: ZGOW 210907Z 2112/2212 10003MPS 5000 BR FEW020 SCT040 TX22/2206Z TN12/2122Z TEMPO 2121/2201 2500

Observacions i pronòstics meteorològics de més de 4000 aeroports (METAR i TAF).

Les estacions disponibles són els punts grocs i vermells al mapa.

Posi el ratolí al punt desitjat per veure el nom de l'estació.

Feu clic per veure les observacions i els pronòstics meteorològics.

Per canviar el mapa: feu clic els botons verds amb una creu de color negre per apropar; al botó verd amb un guió per allunyar la imatge; o en les fletxes verdes per a mapes adjacents.


METAR-TAF: